Aviation Digital Data Service (ADDS)

Output produced by METARs form (1244 UTC 22 March 2019)
found at http://www.aviationweather.gov/metar/data/
 
Forecast for: KBTR (BATON ROUGE , LA, US)
Text: KBTR 221135Z 2212/2312 00000KT 6SM BR SKC
Forecast period: 1200 to 1700 UTC 22 March 2019
Forecast type: FROM: standard forecast or significant change
Winds: calm
Visibility: 6 miles (10 km)
Clouds: clear skies
Weather: BR  (mist)
Text: FM221700 VRB03KT P6SM SKC
Forecast period: 1700 UTC 22 March 2019 to 1200 UTC 23 March 2019
Forecast type: FROM: standard forecast or significant change
Winds: variable direction winds at 3 MPH (3 knots; 1.5 m/s)
Visibility: 6 or more miles 10+ km)
Clouds: clear skies
Weather: no significant weather forecast for this period